createdAt,value
2023-03-02T00:01:56.015Z,4.74
2023-03-02T00:04:26.856Z,4.71
2023-03-02T00:06:57.822Z,4.55
2023-03-02T00:09:25.510Z,4.61
2023-03-02T00:11:52.954Z,4.57
2023-03-02T00:14:20.428Z,4.58
2023-03-02T00:16:48.332Z,4.46
2023-03-02T00:19:16.056Z,4.46
2023-03-02T00:21:44.098Z,4.42
2023-03-02T00:24:11.850Z,4.52
2023-03-02T00:26:39.386Z,4.41
2023-03-02T00:29:07.274Z,4.06
2023-03-02T00:31:35.361Z,4.28
2023-03-02T00:34:02.850Z,4.06
2023-03-02T00:36:30.502Z,4.27
2023-03-02T00:38:58.473Z,4.11
2023-03-02T00:41:26.004Z,4.15
2023-03-02T00:43:53.501Z,4.02
2023-03-02T00:46:23.373Z,4.08
2023-03-02T00:48:52.583Z,4.15
2023-03-02T00:51:20.503Z,4.21
2023-03-02T00:53:48.311Z,4.17
2023-03-02T00:56:15.821Z,4.06
2023-03-02T00:58:43.965Z,4.06
2023-03-02T01:01:13.682Z,4.08
2023-03-02T01:03:41.490Z,3.92
2023-03-02T01:06:18.264Z,3.99
2023-03-02T01:08:46.408Z,3.99
2023-03-02T01:11:19.959Z,4.02
2023-03-02T01:13:48.442Z,4.04
2023-03-02T01:16:16.388Z,3.92
2023-03-02T01:18:43.971Z,3.84
2023-03-02T01:21:15.036Z,3.99
2023-03-02T01:23:43.354Z,4.04
2023-03-02T01:26:11.127Z,3.74
2023-03-02T01:28:38.992Z,3.83
2023-03-02T01:31:06.726Z,3.94
2023-03-02T01:33:34.729Z,3.91
2023-03-02T01:36:02.879Z,3.81
2023-03-02T01:38:30.563Z,3.85
2023-03-02T01:40:58.089Z,3.69
2023-03-02T01:43:25.990Z,3.80
2023-03-02T01:45:56.236Z,3.71
2023-03-02T01:48:29.181Z,3.65
2023-03-02T01:50:58.004Z,3.82
2023-03-02T01:53:28.659Z,3.77
2023-03-02T01:55:57.506Z,3.58
2023-03-02T01:58:26.040Z,3.63
2023-03-02T02:00:54.791Z,3.60
2023-03-02T02:03:25.365Z,3.56
2023-03-02T02:06:11.201Z,3.54
2023-03-02T02:08:39.608Z,3.54
2023-03-02T02:11:07.318Z,3.41
2023-03-02T02:13:34.863Z,3.43
2023-03-02T02:16:02.773Z,3.49
2023-03-02T02:18:30.297Z,3.54
2023-03-02T02:20:57.781Z,3.33
2023-03-02T02:23:28.338Z,3.57
2023-03-02T02:26:13.534Z,3.57
2023-03-02T02:29:07.943Z,3.51
2023-03-02T02:31:38.323Z,3.49
2023-03-02T02:34:15.355Z,3.49
2023-03-02T02:36:45.847Z,3.48
2023-03-02T02:39:33.049Z,3.61
2023-03-02T02:42:03.825Z,3.51
2023-03-02T02:44:32.213Z,3.51
2023-03-02T02:47:00.578Z,3.51
2023-03-02T02:49:31.887Z,3.56
2023-03-02T02:51:59.938Z,3.48
2023-03-02T02:54:28.911Z,3.58
2023-03-02T02:56:57.436Z,3.51
2023-03-02T02:59:31.520Z,3.41
2023-03-02T03:01:59.642Z,3.38
2023-03-02T03:04:31.428Z,3.42
2023-03-02T03:07:01.342Z,3.30
2023-03-02T03:09:29.875Z,3.33
2023-03-02T03:12:00.551Z,3.36
2023-03-02T03:14:35.284Z,3.43
2023-03-02T03:17:03.232Z,3.32
2023-03-02T03:19:32.986Z,3.31
2023-03-02T03:22:02.300Z,3.28
2023-03-02T03:24:32.776Z,3.34
2023-03-02T03:27:01.466Z,3.22
2023-03-02T03:29:30.588Z,3.33
2023-03-02T03:31:59.991Z,3.11
2023-03-02T03:34:29.908Z,3.10
2023-03-02T03:37:02.137Z,3.28
2023-03-02T03:39:30.810Z,3.22
2023-03-02T03:41:59.284Z,3.32
2023-03-02T03:44:27.122Z,3.03
2023-03-02T03:46:54.951Z,2.76
2023-03-02T03:49:23.360Z,3.12
2023-03-02T03:51:50.972Z,3.03
2023-03-02T03:54:19.052Z,2.74
2023-03-02T03:56:49.223Z,2.93
2023-03-02T03:59:20.616Z,2.56
2023-03-02T04:01:52.031Z,2.90
2023-03-02T04:04:26.528Z,2.86
2023-03-02T04:06:54.677Z,2.86
2023-03-02T04:09:23.204Z,2.98
2023-03-02T04:11:52.678Z,2.98
2023-03-02T04:14:22.052Z,2.99
2023-03-02T04:16:50.718Z,3.26
2023-03-02T04:19:18.810Z,2.96
2023-03-02T04:21:52.321Z,2.96
2023-03-02T04:24:22.594Z,3.01
2023-03-02T04:26:51.203Z,3.13
2023-03-02T04:29:19.294Z,3.08
2023-03-02T04:31:48.655Z,3.25
2023-03-02T04:34:16.702Z,3.06
2023-03-02T04:36:44.577Z,3.09
2023-03-02T04:39:15.021Z,2.99
2023-03-02T04:41:42.788Z,2.99
2023-03-02T04:44:10.437Z,3.08
2023-03-02T04:46:38.696Z,2.96
2023-03-02T04:49:06.613Z,2.86
2023-03-02T04:51:38.977Z,2.94
2023-03-02T04:54:11.541Z,2.83
2023-03-02T04:56:38.970Z,3.03
2023-03-02T04:59:06.971Z,3.11
2023-03-02T05:01:34.708Z,2.89
2023-03-02T05:04:03.079Z,2.52
2023-03-02T05:06:31.360Z,2.70
2023-03-02T05:09:00.215Z,2.79
2023-03-02T05:11:27.972Z,2.83
2023-03-02T05:13:58.383Z,2.70
2023-03-02T05:16:29.299Z,2.91
2023-03-02T05:18:57.215Z,2.62
2023-03-02T05:21:25.154Z,2.79
2023-03-02T05:23:53.098Z,2.71
2023-03-02T05:26:20.908Z,2.93
2023-03-02T05:28:48.378Z,2.74
2023-03-02T05:31:23.656Z,2.49
2023-03-02T05:33:52.319Z,2.46
2023-03-02T05:36:22.242Z,2.55
2023-03-02T05:38:50.614Z,2.63
2023-03-02T05:41:18.401Z,2.63
2023-03-02T05:43:46.523Z,2.36
2023-03-02T05:46:14.921Z,2.45
2023-03-02T05:48:43.481Z,2.58
2023-03-02T05:51:11.228Z,2.63
2023-03-02T05:53:39.814Z,2.47
2023-03-02T05:56:11.626Z,2.80
2023-03-02T05:58:41.454Z,2.61
2023-03-02T06:01:14.897Z,2.74
2023-03-02T06:03:43.963Z,2.80
2023-03-02T06:06:14.394Z,2.86
2023-03-02T06:08:42.782Z,3.02
2023-03-02T06:11:10.996Z,2.86
2023-03-02T06:13:38.788Z,2.99
2023-03-02T06:16:07.024Z,3.02
2023-03-02T06:18:41.274Z,3.19
2023-03-02T06:21:09.372Z,3.26
2023-03-02T06:23:37.117Z,3.15
2023-03-02T06:26:09.878Z,3.23
2023-03-02T06:28:51.532Z,3.45
2023-03-02T06:31:21.225Z,3.57
2023-03-02T06:33:48.984Z,3.55
2023-03-02T06:36:17.282Z,3.63
2023-03-02T06:38:45.301Z,3.61
2023-03-02T06:41:13.230Z,3.83
2023-03-02T06:43:40.812Z,3.89
2023-03-02T06:46:08.676Z,3.88
2023-03-02T06:48:36.603Z,4.25
2023-03-02T06:51:04.240Z,4.23
2023-03-02T06:53:31.608Z,4.25
2023-03-02T06:55:59.318Z,4.44
2023-03-02T06:58:26.854Z,4.66
2023-03-02T07:00:54.411Z,4.84
2023-03-02T07:03:22.446Z,4.79
2023-03-02T07:05:51.821Z,4.98
2023-03-02T07:08:19.274Z,4.92
2023-03-02T07:10:47.009Z,4.90
2023-03-02T07:13:14.418Z,5.33
2023-03-02T07:15:41.845Z,5.52
2023-03-02T07:18:37.885Z,5.68
2023-03-02T07:21:06.327Z,5.72
2023-03-02T07:23:34.560Z,5.97
2023-03-02T07:26:02.005Z,6.54
2023-03-02T07:28:29.424Z,6.51
2023-03-02T07:30:57.248Z,6.76
2023-03-02T07:33:25.237Z,7.11
2023-03-02T07:35:52.876Z,7.35
2023-03-02T07:38:20.716Z,7.30
2023-03-02T07:40:48.116Z,7.45
2023-03-02T07:43:15.835Z,7.57
2023-03-02T07:45:43.828Z,7.74
2023-03-02T07:48:11.355Z,8.03
2023-03-02T07:50:38.818Z,8.01
2023-03-02T07:53:06.792Z,8.38
2023-03-02T07:55:34.253Z,8.55
2023-03-02T07:58:01.760Z,8.59
2023-03-02T08:00:29.450Z,8.47
2023-03-02T08:02:57.357Z,8.49
2023-03-02T08:05:24.864Z,8.23
2023-03-02T08:07:52.389Z,8.70
2023-03-02T08:10:20.305Z,8.65
2023-03-02T08:12:47.804Z,8.78
2023-03-02T08:15:15.229Z,8.81
2023-03-02T08:17:43.059Z,9.05
2023-03-02T08:20:12.764Z,8.89
2023-03-02T08:22:40.347Z,8.73
2023-03-02T08:25:08.856Z,9.22
2023-03-02T08:27:36.617Z,9.68
2023-03-02T08:30:04.865Z,9.13
2023-03-02T08:32:34.354Z,9.16
2023-03-02T08:35:04.457Z,9.31
2023-03-02T08:37:32.443Z,9.55
2023-03-02T08:40:00.242Z,9.59
2023-03-02T08:42:27.687Z,9.53
2023-03-02T08:44:55.240Z,9.42
2023-03-02T08:47:22.945Z,9.92
2023-03-02T08:49:51.312Z,9.55
2023-03-02T08:52:18.808Z,9.91
2023-03-02T08:54:46.656Z,10.16
2023-03-02T08:57:14.259Z,9.88
2023-03-02T08:59:42.728Z,9.98
2023-03-02T09:02:12.298Z,10.34
2023-03-02T09:04:39.846Z,10.26
2023-03-02T09:07:09.467Z,10.52
2023-03-02T09:09:37.207Z,10.57
2023-03-02T09:12:04.790Z,10.79
2023-03-02T09:14:32.238Z,10.38
2023-03-02T09:17:00.165Z,10.22
2023-03-02T09:19:27.658Z,10.09
2023-03-02T09:21:55.157Z,10.66
2023-03-02T09:24:22.876Z,10.22
2023-03-02T09:26:50.702Z,10.61
2023-03-02T09:29:18.162Z,10.48
2023-03-02T09:31:45.840Z,10.27
2023-03-02T09:34:13.360Z,10.69
2023-03-02T09:36:41.106Z,11.17
2023-03-02T09:39:12.589Z,11.24
2023-03-02T09:42:11.019Z,11.37
2023-03-02T09:44:38.787Z,11.74
2023-03-02T09:47:16.520Z,11.73
2023-03-02T09:50:21.532Z,11.47
2023-03-02T09:53:14.032Z,11.63
2023-03-02T09:55:43.990Z,12.12
2023-03-02T09:58:20.060Z,11.81
2023-03-02T10:00:48.129Z,11.35
2023-03-02T10:03:21.367Z,11.58
2023-03-02T10:05:52.053Z,11.35
2023-03-02T10:08:25.152Z,11.97
2023-03-02T10:11:11.302Z,11.67
2023-03-02T10:14:04.145Z,12.20
2023-03-02T10:16:38.761Z,11.45
2023-03-02T10:19:20.408Z,12.02
2023-03-02T10:21:49.660Z,12.13
2023-03-02T10:24:40.485Z,12.54
2023-03-02T10:27:17.978Z,12.96
2023-03-02T10:30:06.723Z,13.11
2023-03-02T10:32:44.269Z,13.85
2023-03-02T10:35:20.877Z,13.73
2023-03-02T10:37:51.415Z,14.25
2023-03-02T10:40:31.474Z,14.17
2023-03-02T10:42:59.941Z,14.43
2023-03-02T10:45:31.026Z,14.41
2023-03-02T10:48:03.171Z,14.46
2023-03-02T10:50:30.998Z,13.67
2023-03-02T10:53:00.744Z,14.00
2023-03-02T10:55:29.449Z,13.94
2023-03-02T10:58:06.721Z,13.73
2023-03-02T11:00:35.182Z,13.71
2023-03-02T11:03:07.145Z,14.19
2023-03-02T11:05:37.359Z,14.48
2023-03-02T11:08:05.998Z,14.20
2023-03-02T11:10:34.584Z,13.88
2023-03-02T11:13:16.245Z,14.35
2023-03-02T11:15:51.246Z,14.18
2023-03-02T11:18:38.029Z,14.99
2023-03-02T11:21:10.522Z,14.59
2023-03-02T11:23:44.426Z,14.50
2023-03-02T11:26:21.077Z,15.38
2023-03-02T11:28:54.349Z,15.22
2023-03-02T11:31:32.916Z,15.08
2023-03-02T11:34:22.273Z,14.67
2023-03-02T11:37:27.953Z,14.85
2023-03-02T11:40:51.475Z,14.80
2023-03-02T11:43:19.389Z,15.60
2023-03-02T11:45:49.100Z,15.63
2023-03-02T11:48:31.110Z,15.32
2023-03-02T11:51:03.360Z,15.31
2023-03-02T11:53:41.577Z,14.91
2023-03-02T11:56:09.395Z,15.29
2023-03-02T11:58:47.315Z,14.89
2023-03-02T12:01:22.644Z,15.48
2023-03-02T12:03:50.829Z,15.29
2023-03-02T12:06:18.563Z,15.24
2023-03-02T12:08:48.050Z,14.96
2023-03-02T12:11:19.019Z,14.81
2023-03-02T12:14:24.973Z,15.58
2023-03-02T12:17:04.578Z,15.89
2023-03-02T12:19:42.513Z,15.37
2023-03-02T12:22:12.527Z,14.94
2023-03-02T12:24:42.899Z,14.48
2023-03-02T12:27:10.583Z,14.98
2023-03-02T12:30:05.230Z,14.70
2023-03-02T12:32:33.039Z,14.95
2023-03-02T12:35:09.834Z,15.27
2023-03-02T12:37:46.439Z,15.41
2023-03-02T12:40:51.932Z,15.61
2023-03-02T12:43:42.035Z,15.94
2023-03-02T12:46:29.297Z,14.99
2023-03-02T12:49:14.343Z,16.05
2023-03-02T12:52:01.210Z,16.14
2023-03-02T12:54:34.050Z,16.21
2023-03-02T12:57:08.926Z,15.10
2023-03-02T12:59:37.035Z,15.13
2023-03-02T13:02:06.087Z,15.76
2023-03-02T13:04:33.767Z,15.96
2023-03-02T13:07:01.785Z,15.40
2023-03-02T13:09:29.298Z,15.93
2023-03-02T13:11:57.166Z,16.06
2023-03-02T13:14:26.985Z,16.16
2023-03-02T13:17:05.210Z,15.38
2023-03-02T13:19:33.810Z,15.21
2023-03-02T13:22:01.618Z,15.33
2023-03-02T13:24:45.950Z,15.42
2023-03-02T13:27:18.499Z,16.31
2023-03-02T13:29:46.263Z,16.20
2023-03-02T13:32:27.499Z,15.82
2023-03-02T13:34:59.681Z,16.00
2023-03-02T13:37:39.085Z,14.98
2023-03-02T13:40:24.505Z,14.90
2023-03-02T13:42:52.164Z,14.79
2023-03-02T13:45:22.261Z,14.87
2023-03-02T13:50:28.793Z,15.02
2023-03-02T13:52:58.666Z,15.02
2023-03-02T13:56:38.507Z,16.03
2023-03-02T13:59:13.975Z,16.03
2023-03-02T14:01:41.740Z,15.62
2023-03-02T14:06:55.084Z,15.00
2023-03-02T14:11:57.991Z,15.83
2023-03-02T14:18:39.604Z,15.81
2023-03-02T14:21:26.429Z,15.81
2023-03-02T14:23:54.371Z,14.80
2023-03-02T14:31:28.437Z,15.09
2023-03-02T14:33:58.507Z,14.58
2023-03-02T14:36:31.214Z,14.69
2023-03-02T14:39:03.207Z,15.16
2023-03-02T14:41:53.296Z,15.83
2023-03-02T14:44:23.518Z,15.83
2023-03-02T14:46:51.080Z,14.98
2023-03-02T14:49:19.309Z,15.12
2023-03-02T14:52:03.945Z,15.32
2023-03-02T14:54:43.095Z,15.35
2023-03-02T14:57:23.729Z,14.88
2023-03-02T14:59:51.866Z,15.28
2023-03-02T15:02:25.654Z,14.66
2023-03-02T15:07:30.120Z,14.73
2023-03-02T15:12:31.710Z,14.66
2023-03-02T15:14:59.606Z,14.73
2023-03-02T15:17:27.619Z,14.73
2023-03-02T15:19:55.068Z,14.81
2023-03-02T15:25:00.861Z,15.20
2023-03-02T15:27:28.910Z,15.20
2023-03-02T15:29:57.039Z,14.75
2023-03-02T15:34:51.198Z,14.81
2023-03-02T15:37:19.039Z,14.72
2023-03-02T15:39:46.494Z,14.55
2023-03-02T15:44:47.783Z,14.87
2023-03-02T15:47:16.015Z,14.74
2023-03-02T15:49:43.470Z,14.56
2023-03-02T15:57:26.969Z,14.49
2023-03-02T15:59:55.016Z,14.49
2023-03-02T16:05:01.604Z,14.85
2023-03-02T16:07:30.644Z,14.85
2023-03-02T16:12:48.705Z,14.13
2023-03-02T16:18:00.983Z,14.06
2023-03-02T16:20:34.422Z,13.84
2023-03-02T16:23:06.316Z,13.94
2023-03-02T16:28:03.306Z,14.20
2023-03-02T16:30:31.842Z,14.20
2023-03-02T16:33:04.440Z,13.90
2023-03-02T16:38:11.203Z,13.93
2023-03-02T16:40:40.240Z,13.69
2023-03-02T16:43:10.505Z,13.76
2023-03-02T16:50:13.813Z,13.85
2023-03-02T16:52:42.350Z,13.85
2023-03-02T16:55:19.316Z,13.45
2023-03-02T17:00:21.485Z,13.42
2023-03-02T17:02:54.146Z,13.24
2023-03-02T17:05:21.558Z,13.34
2023-03-02T17:07:49.402Z,13.18
2023-03-02T17:10:20.154Z,12.75
2023-03-02T17:12:47.831Z,12.99
2023-03-02T17:15:15.504Z,12.87
2023-03-02T17:17:43.143Z,12.79
2023-03-02T17:20:12.438Z,12.67
2023-03-02T17:22:40.251Z,12.53
2023-03-02T17:25:09.006Z,12.76
2023-03-02T17:27:36.648Z,12.63
2023-03-02T17:30:05.539Z,12.76
2023-03-02T17:32:33.201Z,12.54
2023-03-02T17:35:00.853Z,12.63
2023-03-02T17:37:30.350Z,12.66
2023-03-02T17:39:57.851Z,12.53
2023-03-02T17:42:25.607Z,12.29
2023-03-02T17:44:53.727Z,12.35
2023-03-02T17:47:21.198Z,12.40
2023-03-02T17:49:49.392Z,12.21
2023-03-02T17:52:18.626Z,12.18
2023-03-02T17:54:46.214Z,12.24
2023-03-02T17:57:13.823Z,12.17
2023-03-02T17:59:41.522Z,11.92
2023-03-02T18:02:10.393Z,11.84
2023-03-02T18:04:38.107Z,11.77
2023-03-02T18:07:05.521Z,11.94
2023-03-02T18:09:33.055Z,11.48
2023-03-02T18:12:02.559Z,11.78
2023-03-02T18:14:30.708Z,11.73
2023-03-02T18:16:58.203Z,11.59
2023-03-02T18:19:26.064Z,11.69
2023-03-02T18:21:53.628Z,11.47
2023-03-02T18:24:21.230Z,11.14
2023-03-02T18:26:49.680Z,10.94
2023-03-02T18:29:17.163Z,10.94
2023-03-02T18:31:44.967Z,10.89
2023-03-02T18:34:12.678Z,10.69
2023-03-02T18:36:40.118Z,10.68
2023-03-02T18:39:07.546Z,10.63
2023-03-02T18:41:35.365Z,10.56
2023-03-02T18:44:03.608Z,10.38
2023-03-02T18:46:31.953Z,10.28
2023-03-02T18:49:01.013Z,10.31
2023-03-02T18:51:29.317Z,10.28
2023-03-02T18:53:57.399Z,10.32
2023-03-02T18:56:25.503Z,10.28
2023-03-02T18:59:02.991Z,10.45
2023-03-02T19:01:36.860Z,10.05
2023-03-02T19:04:06.518Z,9.77
2023-03-02T19:06:37.482Z,9.84
2023-03-02T19:09:05.175Z,9.77
2023-03-02T19:11:32.669Z,9.87
2023-03-02T19:14:00.159Z,9.79
2023-03-02T19:16:28.232Z,9.67
2023-03-02T19:18:56.127Z,9.64
2023-03-02T19:21:25.695Z,9.62
2023-03-02T19:23:53.525Z,9.54
2023-03-02T19:26:21.085Z,9.38
2023-03-02T19:28:48.702Z,9.34
2023-03-02T19:31:16.745Z,9.23
2023-03-02T19:33:45.367Z,9.24
2023-03-02T19:36:13.642Z,9.30
2023-03-02T19:38:42.976Z,9.14
2023-03-02T19:41:12.989Z,9.21
2023-03-02T19:43:42.077Z,9.21
2023-03-02T20:09:13.120Z,8.56
2023-03-02T20:20:45.795Z,8.82
2023-03-02T20:27:32.953Z,8.31
2023-03-02T20:36:31.589Z,8.05
2023-03-02T20:39:10.821Z,7.89
2023-03-02T20:41:38.551Z,8.01
2023-03-02T20:44:06.376Z,7.90
2023-03-02T20:46:40.890Z,7.89
2023-03-02T20:49:10.583Z,7.66
2023-03-02T20:51:39.427Z,7.59
2023-03-02T20:54:07.592Z,7.63
2023-03-02T20:56:35.491Z,7.55
2023-03-02T20:59:03.401Z,7.42
2023-03-02T21:01:31.143Z,7.49
2023-03-02T21:03:58.992Z,7.57
2023-03-02T21:06:27.320Z,7.42
2023-03-02T21:08:54.688Z,7.36
2023-03-02T21:11:22.421Z,7.34
2023-03-02T21:13:50.433Z,7.27
2023-03-02T21:16:25.729Z,7.22
2023-03-02T21:18:55.193Z,7.32
2023-03-02T21:21:35.609Z,7.19
2023-03-02T21:24:09.644Z,7.12
2023-03-02T21:26:37.751Z,7.19
2023-03-02T21:29:05.529Z,7.14
2023-03-02T21:31:33.562Z,7.12
2023-03-02T21:34:00.960Z,6.99
2023-03-02T21:36:28.794Z,6.99
2023-03-02T21:38:56.708Z,6.92
2023-03-02T21:41:24.235Z,7.02
2023-03-02T21:43:51.812Z,7.09
2023-03-02T21:46:22.303Z,6.99
2023-03-02T21:48:51.007Z,6.89
2023-03-02T21:51:18.951Z,7.15
2023-03-02T21:53:47.010Z,6.97
2023-03-02T21:56:20.599Z,6.83
2023-03-02T21:58:49.863Z,6.82
2023-03-02T22:01:17.483Z,6.70
2023-03-02T22:03:45.336Z,6.62
2023-03-02T22:06:24.729Z,6.65
2023-03-02T22:08:52.952Z,6.68
2023-03-02T22:11:26.232Z,6.61
2023-03-02T22:13:56.793Z,6.59
2023-03-02T22:16:26.532Z,6.62
2023-03-02T22:18:57.265Z,6.59
2023-03-02T22:21:24.727Z,6.53
2023-03-02T22:24:06.052Z,6.44
2023-03-02T22:26:38.110Z,6.53
2023-03-02T22:29:14.436Z,6.49
2023-03-02T22:31:47.833Z,6.41
2023-03-02T22:34:43.149Z,6.49
2023-03-02T22:37:13.556Z,6.39
2023-03-02T22:39:42.422Z,6.40
2023-03-02T22:42:14.480Z,6.40
2023-03-02T22:44:42.485Z,6.29
2023-03-02T22:47:18.920Z,6.33
2023-03-02T22:49:48.064Z,6.39
2023-03-02T22:52:17.725Z,6.27
2023-03-02T22:54:45.739Z,6.21
2023-03-02T22:57:31.232Z,6.31
2023-03-02T23:00:11.056Z,6.29
2023-03-02T23:02:43.062Z,6.14
2023-03-02T23:05:27.476Z,6.24
2023-03-02T23:08:01.328Z,6.09
2023-03-02T23:10:28.916Z,6.24
2023-03-02T23:12:56.584Z,6.15
2023-03-02T23:15:25.011Z,6.11
2023-03-02T23:17:52.833Z,6.18
2023-03-02T23:20:20.851Z,6.22
2023-03-02T23:22:50.037Z,6.15
2023-03-02T23:25:17.608Z,6.19
2023-03-02T23:27:45.244Z,6.04
2023-03-02T23:30:12.906Z,5.95
2023-03-02T23:32:40.462Z,6.10
2023-03-02T23:35:08.867Z,6.18
2023-03-02T23:37:36.397Z,6.05
2023-03-02T23:40:04.375Z,6.12
2023-03-02T23:42:32.139Z,6.00
2023-03-02T23:44:59.839Z,6.14
2023-03-02T23:47:27.623Z,6.14
2023-03-02T23:49:55.313Z,6.06
2023-03-02T23:52:22.844Z,6.08
2023-03-02T23:54:51.417Z,5.99
2023-03-02T23:57:19.062Z,5.98
2023-03-02T23:59:46.662Z,6.12
